sensor_id;sensor_type;location;lat;lon;timestamp;pressure;altitude;pressure_sealevel;temperature;humidity
73516;BME280;61763;51.416;5.442;2024-02-04T00:01:39;102346.69;;;9.20;100.00
73516;BME280;61763;51.416;5.442;2024-02-04T00:04:04;102343.25;;;9.12;100.00
73516;BME280;61763;51.416;5.442;2024-02-04T00:06:30;102344.09;;;9.14;100.00
73516;BME280;61763;51.416;5.442;2024-02-04T00:08:55;102344.16;;;9.11;100.00
73516;BME280;61763;51.416;5.442;2024-02-04T00:11:21;102343.38;;;9.06;100.00
73516;BME280;61763;51.416;5.442;2024-02-04T00:13:46;102346.03;;;9.09;100.00
73516;BME280;61763;51.416;5.442;2024-02-04T00:16:12;102341.47;;;9.11;100.00
73516;BME280;61763;51.416;5.442;2024-02-04T00:18:38;102333.53;;;9.05;100.00
73516;BME280;61763;51.416;5.442;2024-02-04T00:21:04;102340.69;;;9.06;100.00
73516;BME280;61763;51.416;5.442;2024-02-04T00:23:29;102338.84;;;9.08;100.00
73516;BME280;61763;51.416;5.442;2024-02-04T00:25:55;102338.75;;;9.12;100.00
73516;BME280;61763;51.416;5.442;2024-02-04T00:28:20;102337.84;;;9.14;100.00
73516;BME280;61763;51.416;5.442;2024-02-04T00:30:46;102331.66;;;9.10;100.00
73516;BME280;61763;51.416;5.442;2024-02-04T00:33:11;102333.28;;;9.17;100.00
73516;BME280;61763;51.416;5.442;2024-02-04T00:35:37;102333.28;;;9.16;100.00
73516;BME280;61763;51.416;5.442;2024-02-04T00:38:02;102336.94;;;9.15;100.00
73516;BME280;61763;51.416;5.442;2024-02-04T00:40:28;102337.72;;;9.20;100.00
73516;BME280;61763;51.416;5.442;2024-02-04T00:42:54;102343.22;;;9.14;100.00
73516;BME280;61763;51.416;5.442;2024-02-04T00:45:20;102345.00;;;9.15;100.00
73516;BME280;61763;51.416;5.442;2024-02-04T00:47:45;102345.00;;;9.15;100.00
73516;BME280;61763;51.416;5.442;2024-02-04T00:50:11;102341.38;;;9.17;100.00
73516;BME280;61763;51.416;5.442;2024-02-04T00:52:36;102334.19;;;9.16;100.00
73516;BME280;61763;51.416;5.442;2024-02-04T00:55:01;102345.72;;;9.23;100.00
73516;BME280;61763;51.416;5.442;2024-02-04T00:57:27;102346.69;;;9.20;100.00
73516;BME280;61763;51.416;5.442;2024-02-04T00:59:53;102348.44;;;9.21;100.00
73516;BME280;61763;51.416;5.442;2024-02-04T01:02:18;102363.66;;;9.24;100.00
73516;BME280;61763;51.416;5.442;2024-02-04T01:04:43;102361.81;;;9.26;100.00
73516;BME280;61763;51.416;5.442;2024-02-04T01:07:09;102359.22;;;9.21;100.00
73516;BME280;61763;51.416;5.442;2024-02-04T01:09:34;102348.47;;;9.20;100.00
73516;BME280;61763;51.416;5.442;2024-02-04T01:12:00;102340.44;;;9.18;100.00
73516;BME280;61763;51.416;5.442;2024-02-04T01:14:25;102338.53;;;9.23;100.00
73516;BME280;61763;51.416;5.442;2024-02-04T01:16:50;102334.00;;;9.25;100.00
73516;BME280;61763;51.416;5.442;2024-02-04T01:19:16;102326.81;;;9.24;100.00
73516;BME280;61763;51.416;5.442;2024-02-04T01:21:41;102319.69;;;9.23;100.00
73516;BME280;61763;51.416;5.442;2024-02-04T01:24:06;102319.53;;;9.31;100.00
73516;BME280;61763;51.416;5.442;2024-02-04T01:26:32;102323.13;;;9.30;100.00
73516;BME280;61763;51.416;5.442;2024-02-04T01:28:57;102328.50;;;9.30;100.00
73516;BME280;61763;51.416;5.442;2024-02-04T01:31:23;102333.72;;;9.38;100.00
73516;BME280;61763;51.416;5.442;2024-02-04T01:33:48;102337.34;;;9.38;100.00
73516;BME280;61763;51.416;5.442;2024-02-04T01:36:14;102326.53;;;9.40;100.00
73516;BME280;61763;51.416;5.442;2024-02-04T01:38:39;102322.88;;;9.42;100.00
73516;BME280;61763;51.416;5.442;2024-02-04T01:41:04;102321.13;;;9.40;100.00
73516;BME280;61763;51.416;5.442;2024-02-04T01:43:30;102319.34;;;9.39;100.00
73516;BME280;61763;51.416;5.442;2024-02-04T01:45:57;102327.31;;;9.43;100.00
73516;BME280;61763;51.416;5.442;2024-02-04T01:48:22;102328.38;;;9.36;100.00
73516;BME280;61763;51.416;5.442;2024-02-04T01:50:50;102330.06;;;9.42;100.00
73516;BME280;61763;51.416;5.442;2024-02-04T01:53:17;102327.28;;;9.45;100.00
73516;BME280;61763;51.416;5.442;2024-02-04T01:55:43;102332.84;;;9.37;100.00
73516;BME280;61763;51.416;5.442;2024-02-04T01:58:09;102333.47;;;9.50;100.00
73516;BME280;61763;51.416;5.442;2024-02-04T02:00:35;102331.72;;;9.47;100.00
73516;BME280;61763;51.416;5.442;2024-02-04T02:03:01;102335.34;;;9.46;100.00
73516;BME280;61763;51.416;5.442;2024-02-04T02:05:27;102331.00;;;9.41;100.00
73516;BME280;61763;51.416;5.442;2024-02-04T02:07:52;102335.34;;;9.46;100.00
73516;BME280;61763;51.416;5.442;2024-02-04T02:10:19;102335.44;;;9.42;100.00
73516;BME280;61763;51.416;5.442;2024-02-04T02:12:59;102348.00;;;9.43;100.00
73516;BME280;61763;51.416;5.442;2024-02-04T02:15:28;102352.19;;;9.56;100.00
73516;BME280;61763;51.416;5.442;2024-02-04T02:18:04;102332.53;;;9.53;100.00
73516;BME280;61763;51.416;5.442;2024-02-04T02:23:14;102341.59;;;9.49;100.00
73516;BME280;61763;51.416;5.442;2024-02-04T02:25:40;102337.97;;;9.51;100.00
73516;BME280;61763;51.416;5.442;2024-02-04T02:28:06;102332.88;;;9.36;100.00
73516;BME280;61763;51.416;5.442;2024-02-04T02:30:32;102339.13;;;9.39;100.00
73516;BME280;61763;51.416;5.442;2024-02-04T02:32:58;102332.97;;;9.33;100.00
73516;BME280;61763;51.416;5.442;2024-02-04T02:35:24;102331.06;;;9.36;100.00
73516;BME280;61763;51.416;5.442;2024-02-04T02:38:00;102331.13;;;9.33;100.00
73516;BME280;61763;51.416;5.442;2024-02-04T02:40:53;102340.88;;;9.40;100.00
73516;BME280;61763;51.416;5.442;2024-02-04T02:43:19;102333.75;;;9.36;100.00
73516;BME280;61763;51.416;5.442;2024-02-04T02:45:44;102335.53;;;9.37;100.00
73516;BME280;61763;51.416;5.442;2024-02-04T02:48:11;102336.50;;;9.35;100.00
73516;BME280;61763;51.416;5.442;2024-02-04T02:50:37;102328.41;;;9.35;100.00
73516;BME280;61763;51.416;5.442;2024-02-04T02:53:02;102315.94;;;9.31;100.00
73516;BME280;61763;51.416;5.442;2024-02-04T02:55:28;102316.69;;;9.37;100.00
73516;BME280;61763;51.416;5.442;2024-02-04T02:57:53;102330.44;;;9.25;100.00
73516;BME280;61763;51.416;5.442;2024-02-04T03:00:19;102327.84;;;9.20;100.00
73516;BME280;61763;51.416;5.442;2024-02-04T03:02:45;102327.06;;;9.14;100.00
73516;BME280;61763;51.416;5.442;2024-02-04T03:05:13;102319.81;;;9.16;100.00
73516;BME280;61763;51.416;5.442;2024-02-04T03:07:40;102323.41;;;9.18;100.00
73516;BME280;61763;51.416;5.442;2024-02-04T03:10:05;102332.22;;;9.24;100.00
73516;BME280;61763;51.416;5.442;2024-02-04T03:12:31;102330.59;;;9.17;100.00
73516;BME280;61763;51.416;5.442;2024-02-04T03:14:56;102318.00;;;9.18;100.00
73516;BME280;61763;51.416;5.442;2024-02-04T03:17:22;102326.97;;;9.18;100.00
73516;BME280;61763;51.416;5.442;2024-02-04T03:19:48;102314.47;;;9.14;100.00
73516;BME280;61763;51.416;5.442;2024-02-04T03:22:14;102322.53;;;9.16;100.00
73516;BME280;61763;51.416;5.442;2024-02-04T03:24:40;102337.88;;;9.12;100.00
73516;BME280;61763;51.416;5.442;2024-02-04T03:27:05;102325.22;;;9.17;100.00
73516;BME280;61763;51.416;5.442;2024-02-04T03:29:30;102328.72;;;9.21;100.00
73516;BME280;61763;51.416;5.442;2024-02-04T03:31:56;102325.19;;;9.19;100.00
73516;BME280;61763;51.416;5.442;2024-02-04T03:34:21;102327.91;;;9.16;100.00
73516;BME280;61763;51.416;5.442;2024-02-04T03:36:47;102322.44;;;9.20;100.00
73516;BME280;61763;51.416;5.442;2024-02-04T03:39:12;102313.28;;;9.27;100.00
73516;BME280;61763;51.416;5.442;2024-02-04T03:41:37;102315.34;;;9.16;100.00
73516;BME280;61763;51.416;5.442;2024-02-04T03:44:04;102318.22;;;9.08;100.00
73516;BME280;61763;51.416;5.442;2024-02-04T03:46:29;102309.16;;;9.11;100.00
73516;BME280;61763;51.416;5.442;2024-02-04T03:48:55;102311.88;;;9.09;100.00
73516;BME280;61763;51.416;5.442;2024-02-04T03:51:20;102311.75;;;9.17;100.00
73516;BME280;61763;51.416;5.442;2024-02-04T03:53:47;102314.56;;;9.09;100.00
73516;BME280;61763;51.416;5.442;2024-02-04T03:56:12;102308.28;;;9.10;100.00
73516;BME280;61763;51.416;5.442;2024-02-04T03:58:37;102311.91;;;9.08;100.00
73516;BME280;61763;51.416;5.442;2024-02-04T04:01:03;102312.53;;;9.22;100.00
73516;BME280;61763;51.416;5.442;2024-02-04T04:03:28;102313.47;;;9.20;100.00
73516;BME280;61763;51.416;5.442;2024-02-04T04:05:54;102314.41;;;9.19;100.00
73516;BME280;61763;51.416;5.442;2024-02-04T04:08:19;102302.50;;;9.27;100.00
73516;BME280;61763;51.416;5.442;2024-02-04T04:10:45;102310.81;;;9.18;100.00
73516;BME280;61763;51.416;5.442;2024-02-04T04:13:10;102322.41;;;9.22;100.00
73516;BME280;61763;51.416;5.442;2024-02-04T04:15:37;102317.91;;;9.22;100.00
73516;BME280;61763;51.416;5.442;2024-02-04T04:18:03;102312.47;;;9.24;100.00
73516;BME280;61763;51.416;5.442;2024-02-04T04:20:28;102318.72;;;9.26;100.00
73516;BME280;61763;51.416;5.442;2024-02-04T04:22:53;102325.66;;;9.39;100.00
73516;BME280;61763;51.416;5.442;2024-02-04T04:25:19;102326.63;;;9.35;100.00
73516;BME280;61763;51.416;5.442;2024-02-04T04:27:44;102336.59;;;9.30;100.00
73516;BME280;61763;51.416;5.442;2024-02-04T04:30:10;102318.69;;;9.27;100.00
73516;BME280;61763;51.416;5.442;2024-02-04T04:32:35;102309.69;;;9.28;100.00
73516;BME280;61763;51.416;5.442;2024-02-04T04:35:01;102312.38;;;9.28;100.00
73516;BME280;61763;51.416;5.442;2024-02-04T04:37:26;102305.31;;;9.23;100.00
73516;BME280;61763;51.416;5.442;2024-02-04T04:39:52;102292.69;;;9.26;100.00
73516;BME280;61763;51.416;5.442;2024-02-04T04:42:17;102296.28;;;9.25;100.00
73516;BME280;61763;51.416;5.442;2024-02-04T04:44:42;102295.31;;;9.29;100.00
73516;BME280;61763;51.416;5.442;2024-02-04T04:47:08;102271.19;;;9.23;100.00
73516;BME280;61763;51.416;5.442;2024-02-04T04:49:34;102260.19;;;9.34;100.00
73516;BME280;61763;51.416;5.442;2024-02-04T04:51:59;102253.84;;;9.37;100.00
73516;BME280;61763;51.416;5.442;2024-02-04T04:54:24;102251.16;;;9.37;100.00
73516;BME280;61763;51.416;5.442;2024-02-04T04:56:50;102242.66;;;9.54;100.00
73516;BME280;61763;51.416;5.442;2024-02-04T04:59:16;102245.41;;;9.51;100.00
73516;BME280;61763;51.416;5.442;2024-02-04T05:01:45;102251.03;;;9.41;100.00
73516;BME280;61763;51.416;5.442;2024-02-04T05:04:11;102272.47;;;9.46;100.00
73516;BME280;61763;51.416;5.442;2024-02-04T05:06:37;102276.19;;;9.40;100.00
73516;BME280;61763;51.416;5.442;2024-02-04T05:09:02;102265.53;;;9.36;100.00
73516;BME280;61763;51.416;5.442;2024-02-04T05:11:28;102270.84;;;9.39;100.00
73516;BME280;61763;51.416;5.442;2024-02-04T05:13:53;102273.63;;;9.36;100.00
73516;BME280;61763;51.416;5.442;2024-02-04T05:16:19;102264.59;;;9.38;100.00
73516;BME280;61763;51.416;5.442;2024-02-04T05:18:45;102271.78;;;9.36;100.00
73516;BME280;61763;51.416;5.442;2024-02-04T05:21:10;102269.13;;;9.35;100.00
73516;BME280;61763;51.416;5.442;2024-02-04T05:23:36;102267.31;;;9.37;100.00
73516;BME280;61763;51.416;5.442;2024-02-04T05:26:06;102266.50;;;9.32;100.00
73516;BME280;61763;51.416;5.442;2024-02-04T05:28:32;102269.97;;;9.38;100.00
73516;BME280;61763;51.416;5.442;2024-02-04T05:30:57;102256.50;;;9.38;100.00
73516;BME280;61763;51.416;5.442;2024-02-04T05:33:23;102260.19;;;9.34;100.00
73516;BME280;61763;51.416;5.442;2024-02-04T05:35:48;102249.28;;;9.39;100.00
73516;BME280;61763;51.416;5.442;2024-02-04T05:38:14;102270.06;;;9.34;100.00
73516;BME280;61763;51.416;5.442;2024-02-04T05:40:39;102269.22;;;9.32;100.00
73516;BME280;61763;51.416;5.442;2024-02-04T05:43:05;102259.34;;;9.32;100.00
73516;BME280;61763;51.416;5.442;2024-02-04T05:45:33;102253.03;;;9.32;100.00
73516;BME280;61763;51.416;5.442;2024-02-04T05:47:58;102245.91;;;9.31;100.00
73516;BME280;61763;51.416;5.442;2024-02-04T05:50:24;102254.75;;;9.36;100.00
73516;BME280;61763;51.416;5.442;2024-02-04T05:52:49;102252.16;;;9.31;100.00
73516;BME280;61763;51.416;5.442;2024-02-04T05:55:14;102248.63;;;9.29;100.00
73516;BME280;61763;51.416;5.442;2024-02-04T05:57:40;102252.88;;;9.39;100.00
73516;BME280;61763;51.416;5.442;2024-02-04T06:00:06;102259.25;;;9.35;100.00
73516;BME280;61763;51.416;5.442;2024-02-04T06:02:33;102258.28;;;9.38;100.00
73516;BME280;61763;51.416;5.442;2024-02-04T06:04:58;102259.31;;;9.34;100.00
73516;BME280;61763;51.416;5.442;2024-02-04T06:07:24;102262.03;;;9.32;100.00
73516;BME280;61763;51.416;5.442;2024-02-04T06:09:49;102265.56;;;9.34;100.00
73516;BME280;61763;51.416;5.442;2024-02-04T06:12:14;102253.94;;;9.32;100.00
73516;BME280;61763;51.416;5.442;2024-02-04T06:14:40;102252.13;;;9.33;100.00
73516;BME280;61763;51.416;5.442;2024-02-04T06:17:06;102246.88;;;9.26;100.00
73516;BME280;61763;51.416;5.442;2024-02-04T06:19:34;102244.31;;;9.22;100.00
73516;BME280;61763;51.416;5.442;2024-02-04T06:22:00;102243.25;;;9.29;100.00
73516;BME280;61763;51.416;5.442;2024-02-04T06:24:25;102243.41;;;9.21;100.00
73516;BME280;61763;51.416;5.442;2024-02-04T06:26:51;102241.44;;;9.29;100.00
73516;BME280;61763;51.416;5.442;2024-02-04T06:29:16;102246.06;;;9.23;100.00
73516;BME280;61763;51.416;5.442;2024-02-04T06:31:46;102236.31;;;9.17;100.00
73516;BME280;61763;51.416;5.442;2024-02-04T06:34:11;102236.19;;;9.23;100.00
73516;BME280;61763;51.416;5.442;2024-02-04T06:36:37;102239.88;;;9.19;100.00
73516;BME280;61763;51.416;5.442;2024-02-04T06:39:02;102238.06;;;9.18;100.00
73516;BME280;61763;51.416;5.442;2024-02-04T06:41:27;102238.06;;;9.18;100.00
73516;BME280;61763;51.416;5.442;2024-02-04T06:43:53;102233.63;;;9.17;100.00
73516;BME280;61763;51.416;5.442;2024-02-04T06:46:27;102222.72;;;9.23;100.00
73516;BME280;61763;51.416;5.442;2024-02-04T06:48:53;102216.53;;;9.18;100.00
73516;BME280;61763;51.416;5.442;2024-02-04T06:51:19;102228.25;;;9.17;100.00
73516;BME280;61763;51.416;5.442;2024-02-04T06:53:45;102230.03;;;9.17;100.00
73516;BME280;61763;51.416;5.442;2024-02-04T06:56:10;102222.75;;;9.22;100.00
73516;BME280;61763;51.416;5.442;2024-02-04T06:58:39;102225.53;;;9.19;100.00
73516;BME280;61763;51.416;5.442;2024-02-04T07:01:04;102226.31;;;9.22;100.00
73516;BME280;61763;51.416;5.442;2024-02-04T07:03:30;102227.31;;;9.18;100.00
73516;BME280;61763;51.416;5.442;2024-02-04T07:05:56;102225.44;;;9.22;100.00
73516;BME280;61763;51.416;5.442;2024-02-04T07:08:21;102224.66;;;9.17;100.00
73516;BME280;61763;51.416;5.442;2024-02-04T07:10:46;102247.09;;;9.16;100.00
73516;BME280;61763;51.416;5.442;2024-02-04T07:13:12;102240.84;;;9.15;100.00
73516;BME280;61763;51.416;5.442;2024-02-04T07:15:38;102253.47;;;9.13;100.00
73516;BME280;61763;51.416;5.442;2024-02-04T07:18:04;102247.94;;;9.19;100.00
73516;BME280;61763;51.416;5.442;2024-02-04T07:20:29;102254.34;;;9.14;100.00
73516;BME280;61763;51.416;5.442;2024-02-04T07:22:54;102255.28;;;9.11;100.00
73516;BME280;61763;51.416;5.442;2024-02-04T07:25:20;102239.91;;;9.18;100.00
73516;BME280;61763;51.416;5.442;2024-02-04T07:27:45;102251.66;;;9.14;100.00
73516;BME280;61763;51.416;5.442;2024-02-04T07:30:11;102232.81;;;9.14;100.00
73516;BME280;61763;51.416;5.442;2024-02-04T07:32:36;102240.81;;;9.17;100.00
73516;BME280;61763;51.416;5.442;2024-02-04T07:35:02;102236.22;;;9.22;100.00
73516;BME280;61763;51.416;5.442;2024-02-04T07:37:28;102236.22;;;9.22;100.00
73516;BME280;61763;51.416;5.442;2024-02-04T07:39:53;102229.00;;;9.22;100.00
73516;BME280;61763;51.416;5.442;2024-02-04T07:42:19;102236.19;;;9.23;100.00
73516;BME280;61763;51.416;5.442;2024-02-04T07:44:44;102228.22;;;9.19;100.00
73516;BME280;61763;51.416;5.442;2024-02-04T07:47:10;102238.06;;;9.18;100.00
73516;BME280;61763;51.416;5.442;2024-02-04T07:49:36;102237.06;;;9.24;100.00
73516;BME280;61763;51.416;5.442;2024-02-04T07:52:02;102229.78;;;9.27;100.00
73516;BME280;61763;51.416;5.442;2024-02-04T07:54:28;102234.22;;;9.30;100.00
73516;BME280;61763;51.416;5.442;2024-02-04T07:56:54;102242.25;;;9.32;100.00
73516;BME280;61763;51.416;5.442;2024-02-04T07:59:19;102244.00;;;9.34;100.00
73516;BME280;61763;51.416;5.442;2024-02-04T08:01:44;102245.03;;;9.28;100.00
73516;BME280;61763;51.416;5.442;2024-02-04T08:04:10;102235.13;;;9.31;100.00
73516;BME280;61763;51.416;5.442;2024-02-04T08:06:36;102232.47;;;9.27;100.00
73516;BME280;61763;51.416;5.442;2024-02-04T08:09:03;102239.69;;;9.27;100.00
73516;BME280;61763;51.416;5.442;2024-02-04T08:11:29;102239.69;;;9.27;100.00
73516;BME280;61763;51.416;5.442;2024-02-04T08:13:55;102239.78;;;9.22;100.00
73516;BME280;61763;51.416;5.442;2024-02-04T08:16:20;102241.50;;;9.26;100.00
73516;BME280;61763;51.416;5.442;2024-02-04T08:18:46;102238.91;;;9.22;100.00
73516;BME280;61763;51.416;5.442;2024-02-04T08:21:12;102223.56;;;9.25;100.00
73516;BME280;61763;51.416;5.442;2024-02-04T08:23:37;102216.38;;;9.24;100.00
73516;BME280;61763;51.416;5.442;2024-02-04T08:26:04;102220.75;;;9.30;100.00
73516;BME280;61763;51.416;5.442;2024-02-04T08:28:30;102205.50;;;9.31;100.00
73516;BME280;61763;51.416;5.442;2024-02-04T08:30:55;102204.59;;;9.30;100.00
73516;BME280;61763;51.416;5.442;2024-02-04T08:33:21;102205.41;;;9.34;100.00
73516;BME280;61763;51.416;5.442;2024-02-04T08:35:47;102206.16;;;9.40;100.00
73516;BME280;61763;51.416;5.442;2024-02-04T08:38:12;102210.63;;;9.41;100.00
73516;BME280;61763;51.416;5.442;2024-02-04T08:40:38;102222.28;;;9.42;100.00
73516;BME280;61763;51.416;5.442;2024-02-04T08:43:03;102220.53;;;9.41;100.00
73516;BME280;61763;51.416;5.442;2024-02-04T08:45:28;102225.84;;;9.44;100.00
73516;BME280;61763;51.416;5.442;2024-02-04T08:47:54;102240.28;;;9.40;100.00
73516;BME280;61763;51.416;5.442;2024-02-04T08:50:19;102235.88;;;9.36;100.00
73516;BME280;61763;51.416;5.442;2024-02-04T08:52:45;102240.44;;;9.34;100.00
73516;BME280;61763;51.416;5.442;2024-02-04T08:55:10;102245.69;;;9.40;100.00
73516;BME280;61763;51.416;5.442;2024-02-04T08:57:36;102234.84;;;9.43;100.00
73516;BME280;61763;51.416;5.442;2024-02-04T09:00:01;102237.50;;;9.44;100.00
73516;BME280;61763;51.416;5.442;2024-02-04T09:02:26;102239.31;;;9.44;100.00
73516;BME280;61763;51.416;5.442;2024-02-04T09:04:52;102248.03;;;9.54;100.00
73516;BME280;61763;51.416;5.442;2024-02-04T09:07:18;102243.53;;;9.56;100.00
73516;BME280;61763;51.416;5.442;2024-02-04T09:09:43;102236.19;;;9.61;100.00
73516;BME280;61763;51.416;5.442;2024-02-04T09:12:09;102236.16;;;9.62;100.00
73516;BME280;61763;51.416;5.442;2024-02-04T09:14:35;102254.34;;;9.54;100.00
73516;BME280;61763;51.416;5.442;2024-02-04T09:17:04;102244.50;;;9.52;100.00
73516;BME280;61763;51.416;5.442;2024-02-04T09:19:31;102241.66;;;9.58;100.00
73516;BME280;61763;51.416;5.442;2024-02-04T09:21:57;102240.91;;;9.53;100.00
73516;BME280;61763;51.416;5.442;2024-02-04T09:24:22;102245.34;;;9.54;100.00
73516;BME280;61763;51.416;5.442;2024-02-04T09:26:48;102245.38;;;9.52;100.00
73516;BME280;61763;51.416;5.442;2024-02-04T09:29:14;102249.94;;;9.50;100.00
73516;BME280;61763;51.416;5.442;2024-02-04T09:31:39;102241.94;;;9.47;100.00
73516;BME280;61763;51.416;5.442;2024-02-04T09:34:04;102235.72;;;9.43;100.00
73516;BME280;61763;51.416;5.442;2024-02-04T09:36:30;102236.63;;;9.44;100.00
73516;BME280;61763;51.416;5.442;2024-02-04T09:38:55;102232.91;;;9.50;100.00
73516;BME280;61763;51.416;5.442;2024-02-04T09:41:21;102239.28;;;9.45;100.00
73516;BME280;61763;51.416;5.442;2024-02-04T09:43:49;102235.50;;;9.53;100.00
73516;BME280;61763;51.416;5.442;2024-02-04T09:46:16;102232.66;;;9.59;100.00
73516;BME280;61763;51.416;5.442;2024-02-04T09:48:44;102234.53;;;9.55;100.00
73516;BME280;61763;51.416;5.442;2024-02-04T09:51:10;102212.84;;;9.61;100.00
73516;BME280;61763;51.416;5.442;2024-02-04T09:53:36;102213.72;;;9.62;100.00
73516;BME280;61763;51.416;5.442;2024-02-04T09:56:04;102211.72;;;9.70;100.00
73516;BME280;61763;51.416;5.442;2024-02-04T09:58:34;102203.59;;;9.72;100.00
73516;BME280;61763;51.416;5.442;2024-02-04T10:01:00;102217.16;;;9.67;100.00
73516;BME280;61763;51.416;5.442;2024-02-04T10:03:26;102217.13;;;9.70;100.00
73516;BME280;61763;51.416;5.442;2024-02-04T10:05:51;102216.13;;;9.73;100.00
73516;BME280;61763;51.416;5.442;2024-02-04T10:08:17;102221.69;;;9.67;100.00
73516;BME280;61763;51.416;5.442;2024-02-04T10:10:42;102223.38;;;9.71;100.00
73516;BME280;61763;51.416;5.442;2024-02-04T10:13:09;102217.16;;;9.67;100.00
73516;BME280;61763;51.416;5.442;2024-02-04T10:15:35;102222.56;;;9.67;100.00
73516;BME280;61763;51.416;5.442;2024-02-04T10:18:07;102240.66;;;9.62;100.00
73516;BME280;61763;51.416;5.442;2024-02-04T10:20:33;102229.78;;;9.67;100.00
73516;BME280;61763;51.416;5.442;2024-02-04T10:22:58;102221.75;;;9.63;100.00
73516;BME280;61763;51.416;5.442;2024-02-04T10:25:24;102223.63;;;9.61;100.00
73516;BME280;61763;51.416;5.442;2024-02-04T10:27:50;102232.63;;;9.60;100.00
73516;BME280;61763;51.416;5.442;2024-02-04T10:30:18;102221.72;;;9.65;100.00
73516;BME280;61763;51.416;5.442;2024-02-04T10:32:44;102216.28;;;9.67;100.00
73516;BME280;61763;51.416;5.442;2024-02-04T10:35:11;102220.75;;;9.69;100.00
73516;BME280;61763;51.416;5.442;2024-02-04T10:37:37;102229.81;;;9.65;100.00
73516;BME280;61763;51.416;5.442;2024-02-04T10:40:02;102239.72;;;9.64;100.00
73516;BME280;61763;51.416;5.442;2024-02-04T10:42:29;102223.63;;;9.61;100.00
73516;BME280;61763;51.416;5.442;2024-02-04T10:44:57;102237.13;;;9.60;100.00
73516;BME280;61763;51.416;5.442;2024-02-04T10:47:29;102242.41;;;9.64;100.00
73516;BME280;61763;51.416;5.442;2024-02-04T10:49:58;102243.25;;;9.67;100.00
73516;BME280;61763;51.416;5.442;2024-02-04T10:52:27;102245.03;;;9.68;100.00
73516;BME280;61763;51.416;5.442;2024-02-04T10:54:53;102240.66;;;9.62;100.00
73516;BME280;61763;51.416;5.442;2024-02-04T10:57:22;102238.81;;;9.64;100.00
73516;BME280;61763;51.416;5.442;2024-02-04T10:59:48;102230.72;;;9.64;100.00
73516;BME280;61763;51.416;5.442;2024-02-04T11:02:15;102222.53;;;9.69;100.00
73516;BME280;61763;51.416;5.442;2024-02-04T11:04:42;102227.91;;;9.69;100.00
73516;BME280;61763;51.416;5.442;2024-02-04T11:07:09;102232.59;;;9.62;100.00
73516;BME280;61763;51.416;5.442;2024-02-04T11:09:36;102226.16;;;9.68;100.00
73516;BME280;61763;51.416;5.442;2024-02-04T11:12:06;102218.03;;;9.69;100.00
73516;BME280;61763;51.416;5.442;2024-02-04T11:14:35;102214.56;;;9.64;100.00
73516;BME280;61763;51.416;5.442;2024-02-04T11:27:56;102201.91;;;9.68;100.00
73516;BME280;61763;51.416;5.442;2024-02-04T11:30:23;102196.44;;;9.71;100.00
73516;BME280;61763;51.416;5.442;2024-02-04T11:32:48;102190.00;;;9.76;100.00
73516;BME280;61763;51.416;5.442;2024-02-04T11:35:14;102204.53;;;9.71;100.00
73516;BME280;61763;51.416;5.442;2024-02-04T11:37:40;102200.00;;;9.71;100.00
73516;BME280;61763;51.416;5.442;2024-02-04T11:40:07;102197.38;;;9.68;100.00
73516;BME280;61763;51.416;5.442;2024-02-04T11:42:33;102194.63;;;9.71;100.00
73516;BME280;61763;51.416;5.442;2024-02-04T11:45:08;102189.19;;;9.73;100.00
73516;BME280;61763;51.416;5.442;2024-02-04T11:47:34;102189.13;;;9.74;100.00
73516;BME280;61763;51.416;5.442;2024-02-04T11:50:03;102193.63;;;9.75;100.00
73516;BME280;61763;51.416;5.442;2024-02-04T11:52:29;102193.56;;;9.77;100.00
73516;BME280;61763;51.416;5.442;2024-02-04T11:54:54;102188.25;;;9.74;100.00
73516;BME280;61763;51.416;5.442;2024-02-04T11:57:20;102181.00;;;9.76;100.00
73516;BME280;61763;51.416;5.442;2024-02-04T11:59:50;102185.50;;;9.77;100.00
73516;BME280;61763;51.416;5.442;2024-02-04T12:02:16;102176.41;;;9.81;100.00
73516;BME280;61763;51.416;5.442;2024-02-04T12:04:44;102172.84;;;9.79;100.00
73516;BME280;61763;51.416;5.442;2024-02-04T12:07:10;102169.28;;;9.78;100.00
73516;BME280;61763;51.416;5.442;2024-02-04T12:09:35;102167.53;;;9.76;100.00
73516;BME280;61763;51.416;5.442;2024-02-04T12:12:02;102161.22;;;9.77;100.00
73516;BME280;61763;51.416;5.442;2024-02-04T12:14:28;102167.44;;;9.79;100.00
73516;BME280;61763;51.416;5.442;2024-02-04T12:16:55;102156.63;;;9.82;100.00
73516;BME280;61763;51.416;5.442;2024-02-04T12:19:21;102169.28;;;9.78;100.00
73516;BME280;61763;51.416;5.442;2024-02-04T12:21:46;102159.66;;;9.68;100.00
73516;BME280;61763;51.416;5.442;2024-02-04T12:24:12;102173.03;;;9.71;100.00
73516;BME280;61763;51.416;5.442;2024-02-04T12:26:38;102157.78;;;9.72;100.00
73516;BME280;61763;51.416;5.442;2024-02-04T12:29:06;102162.34;;;9.68;100.00
73516;BME280;61763;51.416;5.442;2024-02-04T12:31:31;102159.69;;;9.67;100.00
73516;BME280;61763;51.416;5.442;2024-02-04T12:33:59;102160.53;;;9.69;100.00
73516;BME280;61763;51.416;5.442;2024-02-04T12:36:31;102156.00;;;9.71;100.00
73516;BME280;61763;51.416;5.442;2024-02-04T12:38:58;102167.72;;;9.68;100.00
73516;BME280;61763;51.416;5.442;2024-02-04T12:41:25;102155.84;;;9.77;100.00
73516;BME280;61763;51.416;5.442;2024-02-04T12:43:53;102155.78;;;9.78;100.00
73516;BME280;61763;51.416;5.442;2024-02-04T12:46:18;102146.88;;;9.76;100.00
73516;BME280;61763;51.416;5.442;2024-02-04T12:48:44;102152.19;;;9.79;100.00
73516;BME280;61763;51.416;5.442;2024-02-04T12:51:10;102142.91;;;9.90;100.00
73516;BME280;61763;51.416;5.442;2024-02-04T12:53:37;102132.97;;;9.92;100.00
73516;BME280;61763;51.416;5.442;2024-02-04T12:56:02;102117.53;;;9.98;100.00
73516;BME280;61763;51.416;5.442;2024-02-04T12:58:28;102120.72;;;10.13;100.00